sensor_id;sensor_type;location;lat;lon;timestamp;temperature;humidity
18339;DHT22;9295;44.484;11.240;2022-07-19T00:00:40;23.30;99.90
18339;DHT22;9295;44.484;11.240;2022-07-19T00:03:15;23.30;99.90
18339;DHT22;9295;44.484;11.240;2022-07-19T00:05:44;23.30;99.90
18339;DHT22;9295;44.484;11.240;2022-07-19T00:08:13;23.30;99.90
18339;DHT22;9295;44.484;11.240;2022-07-19T00:10:42;23.20;99.90
18339;DHT22;9295;44.484;11.240;2022-07-19T00:13:10;23.20;99.90
18339;DHT22;9295;44.484;11.240;2022-07-19T00:15:40;23.00;99.90
18339;DHT22;9295;44.484;11.240;2022-07-19T00:18:08;22.90;99.90
18339;DHT22;9295;44.484;11.240;2022-07-19T00:20:38;22.80;99.90
18339;DHT22;9295;44.484;11.240;2022-07-19T00:23:07;22.70;99.90
18339;DHT22;9295;44.484;11.240;2022-07-19T00:25:35;22.60;99.90
18339;DHT22;9295;44.484;11.240;2022-07-19T00:28:04;22.50;99.90
18339;DHT22;9295;44.484;11.240;2022-07-19T00:30:33;22.50;99.90
18339;DHT22;9295;44.484;11.240;2022-07-19T00:33:02;22.50;99.90
18339;DHT22;9295;44.484;11.240;2022-07-19T00:35:31;22.60;99.90
18339;DHT22;9295;44.484;11.240;2022-07-19T00:38:04;22.60;99.90
18339;DHT22;9295;44.484;11.240;2022-07-19T00:40:35;22.60;99.90
18339;DHT22;9295;44.484;11.240;2022-07-19T00:43:05;22.60;99.90
18339;DHT22;9295;44.484;11.240;2022-07-19T00:45:37;22.60;99.90
18339;DHT22;9295;44.484;11.240;2022-07-19T00:48:06;22.50;99.90
18339;DHT22;9295;44.484;11.240;2022-07-19T00:50:34;22.50;99.90
18339;DHT22;9295;44.484;11.240;2022-07-19T00:53:04;22.50;99.90
18339;DHT22;9295;44.484;11.240;2022-07-19T00:55:34;22.50;99.90
18339;DHT22;9295;44.484;11.240;2022-07-19T00:58:05;22.60;99.90
18339;DHT22;9295;44.484;11.240;2022-07-19T01:00:36;22.60;99.90
18339;DHT22;9295;44.484;11.240;2022-07-19T01:03:06;22.60;99.90
18339;DHT22;9295;44.484;11.240;2022-07-19T01:05:36;22.70;99.90
18339;DHT22;9295;44.484;11.240;2022-07-19T01:08:08;22.70;99.90
18339;DHT22;9295;44.484;11.240;2022-07-19T01:10:40;22.70;99.90
18339;DHT22;9295;44.484;11.240;2022-07-19T01:13:12;22.80;99.90
18339;DHT22;9295;44.484;11.240;2022-07-19T01:15:41;22.70;99.90
18339;DHT22;9295;44.484;11.240;2022-07-19T01:18:10;22.60;99.90
18339;DHT22;9295;44.484;11.240;2022-07-19T01:20:39;22.50;99.90
18339;DHT22;9295;44.484;11.240;2022-07-19T01:23:09;22.40;99.90
18339;DHT22;9295;44.484;11.240;2022-07-19T01:25:37;22.30;99.90
18339;DHT22;9295;44.484;11.240;2022-07-19T01:28:07;22.30;99.90
18339;DHT22;9295;44.484;11.240;2022-07-19T01:30:36;22.20;99.90
18339;DHT22;9295;44.484;11.240;2022-07-19T01:33:05;22.30;99.90
18339;DHT22;9295;44.484;11.240;2022-07-19T01:35:34;22.20;99.90
18339;DHT22;9295;44.484;11.240;2022-07-19T01:38:02;22.30;99.90
18339;DHT22;9295;44.484;11.240;2022-07-19T01:40:32;22.30;99.90
18339;DHT22;9295;44.484;11.240;2022-07-19T01:43:01;22.30;99.90
18339;DHT22;9295;44.484;11.240;2022-07-19T01:45:30;22.30;99.90
18339;DHT22;9295;44.484;11.240;2022-07-19T01:48:18;22.20;99.90
18339;DHT22;9295;44.484;11.240;2022-07-19T01:50:47;22.10;99.90
18339;DHT22;9295;44.484;11.240;2022-07-19T01:53:16;22.00;99.90
18339;DHT22;9295;44.484;11.240;2022-07-19T01:55:45;22.00;99.90
18339;DHT22;9295;44.484;11.240;2022-07-19T01:58:14;22.00;99.90
18339;DHT22;9295;44.484;11.240;2022-07-19T02:00:43;22.00;99.90
18339;DHT22;9295;44.484;11.240;2022-07-19T02:03:12;22.00;99.90
18339;DHT22;9295;44.484;11.240;2022-07-19T02:05:43;22.00;99.90
18339;DHT22;9295;44.484;11.240;2022-07-19T02:08:12;22.00;99.90
18339;DHT22;9295;44.484;11.240;2022-07-19T02:10:41;22.00;99.90
18339;DHT22;9295;44.484;11.240;2022-07-19T02:13:11;22.00;99.90
18339;DHT22;9295;44.484;11.240;2022-07-19T02:15:39;22.00;99.90
18339;DHT22;9295;44.484;11.240;2022-07-19T02:18:08;22.00;99.90
18339;DHT22;9295;44.484;11.240;2022-07-19T02:20:36;22.00;99.90
18339;DHT22;9295;44.484;11.240;2022-07-19T02:23:05;22.00;99.90
18339;DHT22;9295;44.484;11.240;2022-07-19T02:25:34;21.90;99.90
18339;DHT22;9295;44.484;11.240;2022-07-19T02:28:02;21.80;99.90
18339;DHT22;9295;44.484;11.240;2022-07-19T02:30:33;21.80;99.90
18339;DHT22;9295;44.484;11.240;2022-07-19T02:33:01;21.80;99.90
18339;DHT22;9295;44.484;11.240;2022-07-19T02:35:30;21.70;99.90
18339;DHT22;9295;44.484;11.240;2022-07-19T02:37:59;21.60;99.90
18339;DHT22;9295;44.484;11.240;2022-07-19T02:40:29;21.60;99.90
18339;DHT22;9295;44.484;11.240;2022-07-19T02:42:57;21.50;99.90
18339;DHT22;9295;44.484;11.240;2022-07-19T02:45:26;21.40;99.90
18339;DHT22;9295;44.484;11.240;2022-07-19T02:47:56;21.40;99.90
18339;DHT22;9295;44.484;11.240;2022-07-19T02:50:25;21.40;99.90
18339;DHT22;9295;44.484;11.240;2022-07-19T02:52:53;21.40;99.90
18339;DHT22;9295;44.484;11.240;2022-07-19T02:55:22;21.40;99.90
18339;DHT22;9295;44.484;11.240;2022-07-19T02:57:50;21.40;99.90
18339;DHT22;9295;44.484;11.240;2022-07-19T03:00:19;21.50;99.90
18339;DHT22;9295;44.484;11.240;2022-07-19T03:02:48;21.50;99.90
18339;DHT22;9295;44.484;11.240;2022-07-19T03:05:19;21.60;99.90
18339;DHT22;9295;44.484;11.240;2022-07-19T03:07:48;21.60;99.90
18339;DHT22;9295;44.484;11.240;2022-07-19T03:10:16;21.50;99.90
18339;DHT22;9295;44.484;11.240;2022-07-19T03:12:45;21.50;99.90
18339;DHT22;9295;44.484;11.240;2022-07-19T03:15:13;21.50;99.90
18339;DHT22;9295;44.484;11.240;2022-07-19T03:17:42;21.40;99.90
18339;DHT22;9295;44.484;11.240;2022-07-19T03:20:11;21.40;99.90
18339;DHT22;9295;44.484;11.240;2022-07-19T03:22:41;21.40;99.90
18339;DHT22;9295;44.484;11.240;2022-07-19T03:25:09;21.40;99.90
18339;DHT22;9295;44.484;11.240;2022-07-19T03:27:38;21.40;99.90
18339;DHT22;9295;44.484;11.240;2022-07-19T03:30:10;21.40;99.90
18339;DHT22;9295;44.484;11.240;2022-07-19T03:32:39;21.30;99.90
18339;DHT22;9295;44.484;11.240;2022-07-19T03:35:08;21.20;99.90
18339;DHT22;9295;44.484;11.240;2022-07-19T03:37:37;21.10;99.90
18339;DHT22;9295;44.484;11.240;2022-07-19T03:40:08;21.10;99.90
18339;DHT22;9295;44.484;11.240;2022-07-19T03:42:37;21.00;99.90
18339;DHT22;9295;44.484;11.240;2022-07-19T03:45:06;21.00;99.90
18339;DHT22;9295;44.484;11.240;2022-07-19T03:47:35;20.90;99.90
18339;DHT22;9295;44.484;11.240;2022-07-19T03:50:05;20.90;99.90
18339;DHT22;9295;44.484;11.240;2022-07-19T03:52:33;20.90;99.90
18339;DHT22;9295;44.484;11.240;2022-07-19T03:55:02;20.90;99.90
18339;DHT22;9295;44.484;11.240;2022-07-19T03:57:32;21.00;99.90
18339;DHT22;9295;44.484;11.240;2022-07-19T04:00:01;21.00;99.90
18339;DHT22;9295;44.484;11.240;2022-07-19T04:02:38;21.00;99.90
18339;DHT22;9295;44.484;11.240;2022-07-19T04:05:08;21.00;99.90
18339;DHT22;9295;44.484;11.240;2022-07-19T04:07:39;21.00;99.90
18339;DHT22;9295;44.484;11.240;2022-07-19T04:10:09;21.00;99.90
18339;DHT22;9295;44.484;11.240;2022-07-19T04:12:40;21.10;99.90
18339;DHT22;9295;44.484;11.240;2022-07-19T04:15:09;21.10;99.90
18339;DHT22;9295;44.484;11.240;2022-07-19T04:17:39;21.10;99.90
18339;DHT22;9295;44.484;11.240;2022-07-19T04:20:09;21.10;99.90
18339;DHT22;9295;44.484;11.240;2022-07-19T04:22:38;21.20;99.90
18339;DHT22;9295;44.484;11.240;2022-07-19T04:25:08;21.30;99.90
18339;DHT22;9295;44.484;11.240;2022-07-19T04:27:37;21.40;99.90
18339;DHT22;9295;44.484;11.240;2022-07-19T04:30:08;21.50;99.90
18339;DHT22;9295;44.484;11.240;2022-07-19T04:32:37;21.40;99.90
18339;DHT22;9295;44.484;11.240;2022-07-19T04:35:06;21.40;99.90
18339;DHT22;9295;44.484;11.240;2022-07-19T04:37:36;21.30;99.90
18339;DHT22;9295;44.484;11.240;2022-07-19T04:40:06;21.30;99.90
18339;DHT22;9295;44.484;11.240;2022-07-19T04:42:35;21.30;99.90
18339;DHT22;9295;44.484;11.240;2022-07-19T04:45:06;21.30;99.90
18339;DHT22;9295;44.484;11.240;2022-07-19T04:47:35;21.40;99.90
18339;DHT22;9295;44.484;11.240;2022-07-19T04:50:04;21.50;99.90
18339;DHT22;9295;44.484;11.240;2022-07-19T04:52:33;21.50;99.90
18339;DHT22;9295;44.484;11.240;2022-07-19T04:55:02;21.60;99.90
18339;DHT22;9295;44.484;11.240;2022-07-19T04:57:31;21.80;99.90
18339;DHT22;9295;44.484;11.240;2022-07-19T05:00:00;21.90;99.90
18339;DHT22;9295;44.484;11.240;2022-07-19T05:02:30;22.10;99.90
18339;DHT22;9295;44.484;11.240;2022-07-19T05:04:58;22.40;99.90
18339;DHT22;9295;44.484;11.240;2022-07-19T05:07:27;22.60;99.90
18339;DHT22;9295;44.484;11.240;2022-07-19T05:09:56;23.00;99.90
18339;DHT22;9295;44.484;11.240;2022-07-19T05:12:27;23.40;99.90
18339;DHT22;9295;44.484;11.240;2022-07-19T05:14:56;23.50;99.90
18339;DHT22;9295;44.484;11.240;2022-07-19T05:17:25;23.70;99.90
18339;DHT22;9295;44.484;11.240;2022-07-19T05:19:56;23.90;99.90
18339;DHT22;9295;44.484;11.240;2022-07-19T05:22:24;24.10;99.90
18339;DHT22;9295;44.484;11.240;2022-07-19T05:24:53;24.20;99.90
18339;DHT22;9295;44.484;11.240;2022-07-19T05:27:23;24.30;99.90
18339;DHT22;9295;44.484;11.240;2022-07-19T05:29:51;24.60;99.90
18339;DHT22;9295;44.484;11.240;2022-07-19T05:32:22;24.70;99.90
18339;DHT22;9295;44.484;11.240;2022-07-19T05:34:55;24.80;99.90
18339;DHT22;9295;44.484;11.240;2022-07-19T05:37:23;24.90;99.90
18339;DHT22;9295;44.484;11.240;2022-07-19T05:39:52;25.10;99.90
18339;DHT22;9295;44.484;11.240;2022-07-19T05:42:21;25.20;99.90
18339;DHT22;9295;44.484;11.240;2022-07-19T05:44:49;25.40;99.90
18339;DHT22;9295;44.484;11.240;2022-07-19T05:47:18;25.60;99.90
18339;DHT22;9295;44.484;11.240;2022-07-19T05:49:47;25.90;99.90
18339;DHT22;9295;44.484;11.240;2022-07-19T05:52:17;26.10;99.90
18339;DHT22;9295;44.484;11.240;2022-07-19T05:54:52;26.20;99.90
18339;DHT22;9295;44.484;11.240;2022-07-19T05:57:20;26.50;99.90
18339;DHT22;9295;44.484;11.240;2022-07-19T05:59:49;26.60;99.90
18339;DHT22;9295;44.484;11.240;2022-07-19T06:02:18;26.80;99.90
18339;DHT22;9295;44.484;11.240;2022-07-19T06:04:48;26.90;99.90
18339;DHT22;9295;44.484;11.240;2022-07-19T06:07:18;27.10;99.90
18339;DHT22;9295;44.484;11.240;2022-07-19T06:09:47;27.20;99.90
18339;DHT22;9295;44.484;11.240;2022-07-19T06:12:16;27.40;99.90
18339;DHT22;9295;44.484;11.240;2022-07-19T06:14:44;27.50;99.90
18339;DHT22;9295;44.484;11.240;2022-07-19T06:17:15;27.70;99.90
18339;DHT22;9295;44.484;11.240;2022-07-19T06:19:44;27.80;99.90
18339;DHT22;9295;44.484;11.240;2022-07-19T06:22:13;27.90;99.90
18339;DHT22;9295;44.484;11.240;2022-07-19T06:24:43;28.00;99.90
18339;DHT22;9295;44.484;11.240;2022-07-19T06:27:11;28.10;99.90
18339;DHT22;9295;44.484;11.240;2022-07-19T06:29:40;28.30;99.90
18339;DHT22;9295;44.484;11.240;2022-07-19T06:32:09;28.30;99.60
18339;DHT22;9295;44.484;11.240;2022-07-19T06:34:37;28.30;99.50
18339;DHT22;9295;44.484;11.240;2022-07-19T06:37:06;28.40;99.50
18339;DHT22;9295;44.484;11.240;2022-07-19T06:39:34;28.50;99.40
18339;DHT22;9295;44.484;11.240;2022-07-19T06:42:07;28.60;99.30
18339;DHT22;9295;44.484;11.240;2022-07-19T06:44:38;28.70;99.10
18339;DHT22;9295;44.484;11.240;2022-07-19T06:47:06;28.80;99.00
18339;DHT22;9295;44.484;11.240;2022-07-19T06:49:35;28.90;98.50
18339;DHT22;9295;44.484;11.240;2022-07-19T06:52:04;29.10;98.20
18339;DHT22;9295;44.484;11.240;2022-07-19T06:54:40;29.40;96.30
18339;DHT22;9295;44.484;11.240;2022-07-19T06:57:10;29.60;94.70
18339;DHT22;9295;44.484;11.240;2022-07-19T06:59:39;29.70;94.50
18339;DHT22;9295;44.484;11.240;2022-07-19T07:02:07;29.90;93.90
18339;DHT22;9295;44.484;11.240;2022-07-19T07:04:36;29.90;92.50
18339;DHT22;9295;44.484;11.240;2022-07-19T07:07:13;30.10;91.90
18339;DHT22;9295;44.484;11.240;2022-07-19T07:09:42;30.20;92.00
18339;DHT22;9295;44.484;11.240;2022-07-19T07:12:12;30.50;91.70
18339;DHT22;9295;44.484;11.240;2022-07-19T07:14:40;30.70;91.10
18339;DHT22;9295;44.484;11.240;2022-07-19T07:17:09;30.90;90.70
18339;DHT22;9295;44.484;11.240;2022-07-19T07:19:37;30.90;90.40
18339;DHT22;9295;44.484;11.240;2022-07-19T07:22:06;31.10;90.30
18339;DHT22;9295;44.484;11.240;2022-07-19T07:24:35;31.20;87.90
18339;DHT22;9295;44.484;11.240;2022-07-19T07:27:04;31.40;87.60
18339;DHT22;9295;44.484;11.240;2022-07-19T07:29:35;31.40;86.20
18339;DHT22;9295;44.484;11.240;2022-07-19T07:32:06;31.40;87.40
18339;DHT22;9295;44.484;11.240;2022-07-19T07:34:38;31.50;86.10
18339;DHT22;9295;44.484;11.240;2022-07-19T07:37:08;31.70;82.70
18339;DHT22;9295;44.484;11.240;2022-07-19T07:39:36;31.50;82.20
18339;DHT22;9295;44.484;11.240;2022-07-19T07:42:05;31.50;83.20
18339;DHT22;9295;44.484;11.240;2022-07-19T07:44:40;31.50;82.00
18339;DHT22;9295;44.484;11.240;2022-07-19T07:47:09;31.60;82.30
18339;DHT22;9295;44.484;11.240;2022-07-19T07:49:38;31.80;81.50
18339;DHT22;9295;44.484;11.240;2022-07-19T07:52:07;31.70;80.60
18339;DHT22;9295;44.484;11.240;2022-07-19T07:54:35;31.50;82.10
18339;DHT22;9295;44.484;11.240;2022-07-19T07:57:24;31.50;77.70
18339;DHT22;9295;44.484;11.240;2022-07-19T07:59:54;31.70;80.10
18339;DHT22;9295;44.484;11.240;2022-07-19T08:02:23;31.80;80.60
18339;DHT22;9295;44.484;11.240;2022-07-19T08:04:51;31.80;79.20
18339;DHT22;9295;44.484;11.240;2022-07-19T08:07:20;31.60;79.10
18339;DHT22;9295;44.484;11.240;2022-07-19T08:09:49;31.60;80.20
18339;DHT22;9295;44.484;11.240;2022-07-19T08:12:17;31.70;78.70
18339;DHT22;9295;44.484;11.240;2022-07-19T08:14:46;31.70;76.10
18339;DHT22;9295;44.484;11.240;2022-07-19T08:17:16;31.60;77.70
18339;DHT22;9295;44.484;11.240;2022-07-19T08:19:45;31.70;76.40
18339;DHT22;9295;44.484;11.240;2022-07-19T08:22:14;31.50;75.60
18339;DHT22;9295;44.484;11.240;2022-07-19T08:24:43;31.40;75.00
18339;DHT22;9295;44.484;11.240;2022-07-19T08:27:12;31.30;76.20
18339;DHT22;9295;44.484;11.240;2022-07-19T08:29:40;31.40;77.30
18339;DHT22;9295;44.484;11.240;2022-07-19T08:32:09;31.40;75.00
18339;DHT22;9295;44.484;11.240;2022-07-19T08:34:39;31.30;74.20
18339;DHT22;9295;44.484;11.240;2022-07-19T08:37:08;31.30;75.00
18339;DHT22;9295;44.484;11.240;2022-07-19T08:39:36;31.70;76.00
18339;DHT22;9295;44.484;11.240;2022-07-19T08:42:05;32.00;74.20
18339;DHT22;9295;44.484;11.240;2022-07-19T08:44:35;32.10;74.10
18339;DHT22;9295;44.484;11.240;2022-07-19T08:47:06;32.30;73.80
18339;DHT22;9295;44.484;11.240;2022-07-19T08:49:35;32.60;72.80
18339;DHT22;9295;44.484;11.240;2022-07-19T08:52:05;32.80;71.80
18339;DHT22;9295;44.484;11.240;2022-07-19T08:54:34;32.90;71.50
18339;DHT22;9295;44.484;11.240;2022-07-19T08:57:03;32.90;69.90
18339;DHT22;9295;44.484;11.240;2022-07-19T08:59:49;32.90;70.80
18339;DHT22;9295;44.484;11.240;2022-07-19T09:02:18;33.10;70.50
18339;DHT22;9295;44.484;11.240;2022-07-19T09:04:59;33.30;69.50
18339;DHT22;9295;44.484;11.240;2022-07-19T09:07:29;33.50;67.20
18339;DHT22;9295;44.484;11.240;2022-07-19T09:10:13;33.30;66.40
18339;DHT22;9295;44.484;11.240;2022-07-19T09:13:06;33.30;67.20
18339;DHT22;9295;44.484;11.240;2022-07-19T09:15:45;33.30;63.90
18339;DHT22;9295;44.484;11.240;2022-07-19T09:18:18;33.10;65.20
18339;DHT22;9295;44.484;11.240;2022-07-19T09:20:47;33.30;64.10
18339;DHT22;9295;44.484;11.240;2022-07-19T09:23:18;33.10;63.70
18339;DHT22;9295;44.484;11.240;2022-07-19T09:25:49;33.10;64.00
18339;DHT22;9295;44.484;11.240;2022-07-19T09:28:22;33.10;63.70
18339;DHT22;9295;44.484;11.240;2022-07-19T09:30:55;33.10;63.90
18339;DHT22;9295;44.484;11.240;2022-07-19T09:33:28;33.10;61.00
18339;DHT22;9295;44.484;11.240;2022-07-19T09:35:59;32.80;60.60
18339;DHT22;9295;44.484;11.240;2022-07-19T09:38:30;32.60;61.90
18339;DHT22;9295;44.484;11.240;2022-07-19T09:41:11;32.60;61.90
18339;DHT22;9295;44.484;11.240;2022-07-19T09:43:51;32.50;60.50
18339;DHT22;9295;44.484;11.240;2022-07-19T09:46:30;32.50;61.20
18339;DHT22;9295;44.484;11.240;2022-07-19T09:49:03;32.60;61.00
18339;DHT22;9295;44.484;11.240;2022-07-19T09:51:34;32.40;60.70
18339;DHT22;9295;44.484;11.240;2022-07-19T09:54:06;32.40;62.20
18339;DHT22;9295;44.484;11.240;2022-07-19T09:56:36;32.40;60.90
18339;DHT22;9295;44.484;11.240;2022-07-19T09:59:06;32.30;60.80
18339;DHT22;9295;44.484;11.240;2022-07-19T10:01:35;32.40;61.20
18339;DHT22;9295;44.484;11.240;2022-07-19T10:04:08;32.60;61.00
18339;DHT22;9295;44.484;11.240;2022-07-19T10:06:38;32.80;60.00
18339;DHT22;9295;44.484;11.240;2022-07-19T10:09:12;32.70;60.30
18339;DHT22;9295;44.484;11.240;2022-07-19T10:11:41;32.50;59.60
18339;DHT22;9295;44.484;11.240;2022-07-19T10:14:11;32.30;60.20
18339;DHT22;9295;44.484;11.240;2022-07-19T10:16:48;32.30;60.30
18339;DHT22;9295;44.484;11.240;2022-07-19T10:19:19;32.40;61.40
18339;DHT22;9295;44.484;11.240;2022-07-19T10:21:51;32.60;60.60
18339;DHT22;9295;44.484;11.240;2022-07-19T10:24:47;32.60;60.40
18339;DHT22;9295;44.484;11.240;2022-07-19T10:27:18;32.70;60.60
18339;DHT22;9295;44.484;11.240;2022-07-19T10:29:48;32.70;60.40
18339;DHT22;9295;44.484;11.240;2022-07-19T10:32:17;32.40;60.20
18339;DHT22;9295;44.484;11.240;2022-07-19T10:34:48;32.10;60.70
18339;DHT22;9295;44.484;11.240;2022-07-19T10:37:39;32.10;61.40
18339;DHT22;9295;44.484;11.240;2022-07-19T10:40:09;32.20;61.30
18339;DHT22;9295;44.484;11.240;2022-07-19T10:43:03;32.20;60.50
18339;DHT22;9295;44.484;11.240;2022-07-19T10:45:32;32.30;61.70
18339;DHT22;9295;44.484;11.240;2022-07-19T10:48:10;32.40;60.80
18339;DHT22;9295;44.484;11.240;2022-07-19T10:50:47;32.30;60.60
18339;DHT22;9295;44.484;11.240;2022-07-19T10:56:27;32.40;60.80
18339;DHT22;9295;44.484;11.240;2022-07-19T10:58:57;32.40;60.30
18339;DHT22;9295;44.484;11.240;2022-07-19T11:01:29;32.40;61.10
18339;DHT22;9295;44.484;11.240;2022-07-19T11:04:29;32.60;61.10
18339;DHT22;9295;44.484;11.240;2022-07-19T11:07:19;32.80;60.00
18339;DHT22;9295;44.484;11.240;2022-07-19T11:09:58;32.80;60.00
18339;DHT22;9295;44.484;11.240;2022-07-19T11:12:33;32.80;60.00
18339;DHT22;9295;44.484;11.240;2022-07-19T11:15:05;32.70;60.40
18339;DHT22;9295;44.484;11.240;2022-07-19T11:17:53;32.90;59.90
18339;DHT22;9295;44.484;11.240;2022-07-19T11:20:23;32.70;59.80
18339;DHT22;9295;44.484;11.240;2022-07-19T11:22:53;32.60;60.40
18339;DHT22;9295;44.484;11.240;2022-07-19T11:25:26;32.70;60.90
18339;DHT22;9295;44.484;11.240;2022-07-19T11:27:57;32.90;60.70
18339;DHT22;9295;44.484;11.240;2022-07-19T11:30:28;33.20;60.00
18339;DHT22;9295;44.484;11.240;2022-07-19T11:32:58;33.40;59.80
18339;DHT22;9295;44.484;11.240;2022-07-19T11:35:28;33.50;59.50
18339;DHT22;9295;44.484;11.240;2022-07-19T11:37:58;33.80;59.90
18339;DHT22;9295;44.484;11.240;2022-07-19T11:40:34;33.90;59.50
18339;DHT22;9295;44.484;11.240;2022-07-19T11:43:07;34.30;59.60
18339;DHT22;9295;44.484;11.240;2022-07-19T11:45:43;34.40;59.20
18339;DHT22;9295;44.484;11.240;2022-07-19T11:48:23;34.50;58.50
18339;DHT22;9295;44.484;11.240;2022-07-19T11:51:00;34.50;58.20
18339;DHT22;9295;44.484;11.240;2022-07-19T11:53:30;34.50;57.90
18339;DHT22;9295;44.484;11.240;2022-07-19T11:56:01;34.40;58.10
18339;DHT22;9295;44.484;11.240;2022-07-19T11:58:32;34.40;58.20
18339;DHT22;9295;44.484;11.240;2022-07-19T12:01:05;34.30;57.40
18339;DHT22;9295;44.484;11.240;2022-07-19T12:03:34;34.10;58.00
18339;DHT22;9295;44.484;11.240;2022-07-19T12:06:05;33.90;58.50
18339;DHT22;9295;44.484;11.240;2022-07-19T12:08:36;33.90;58.40
18339;DHT22;9295;44.484;11.240;2022-07-19T12:11:16;33.90;57.70
18339;DHT22;9295;44.484;11.240;2022-07-19T12:13:47;33.80;58.40
18339;DHT22;9295;44.484;11.240;2022-07-19T12:16:18;33.60;58.40
18339;DHT22;9295;44.484;11.240;2022-07-19T12:18:50;33.60;58.70
18339;DHT22;9295;44.484;11.240;2022-07-19T12:21:39;33.60;58.70
18339;DHT22;9295;44.484;11.240;2022-07-19T12:24:18;33.40;59.10
18339;DHT22;9295;44.484;11.240;2022-07-19T12:26:59;33.40;59.80
18339;DHT22;9295;44.484;11.240;2022-07-19T12:29:33;33.50;57.60
18339;DHT22;9295;44.484;11.240;2022-07-19T12:32:04;33.60;58.10
18339;DHT22;9295;44.484;11.240;2022-07-19T12:34:43;33.60;58.70
18339;DHT22;9295;44.484;11.240;2022-07-19T12:37:23;33.60;59.20
18339;DHT22;9295;44.484;11.240;2022-07-19T12:40:04;33.70;58.90
18339;DHT22;9295;44.484;11.240;2022-07-19T12:42:39;33.70;59.30
18339;DHT22;9295;44.484;11.240;2022-07-19T12:45:12;33.60;58.70
18339;DHT22;9295;44.484;11.240;2022-07-19T12:47:41;33.50;59.20
18339;DHT22;9295;44.484;11.240;2022-07-19T12:50:19;33.60;60.20
18339;DHT22;9295;44.484;11.240;2022-07-19T12:52:48;33.60;60.30
18339;DHT22;9295;44.484;11.240;2022-07-19T12:55:17;33.50;60.00
18339;DHT22;9295;44.484;11.240;2022-07-19T12:57:47;33.30;59.50
18339;DHT22;9295;44.484;11.240;2022-07-19T13:00:18;33.30;60.30
18339;DHT22;9295;44.484;11.240;2022-07-19T13:02:48;33.40;60.60
18339;DHT22;9295;44.484;11.240;2022-07-19T13:05:17;33.40;60.70
18339;DHT22;9295;44.484;11.240;2022-07-19T13:07:46;33.50;61.50
18339;DHT22;9295;44.484;11.240;2022-07-19T13:10:15;33.60;61.90
18339;DHT22;9295;44.484;11.240;2022-07-19T13:12:44;33.80;61.70
18339;DHT22;9295;44.484;11.240;2022-07-19T13:15:14;33.80;62.00
18339;DHT22;9295;44.484;11.240;2022-07-19T13:17:45;33.90;62.40
18339;DHT22;9295;44.484;11.240;2022-07-19T13:20:14;33.90;62.50
18339;DHT22;9295;44.484;11.240;2022-07-19T13:22:43;34.00;62.10
18339;DHT22;9295;44.484;11.240;2022-07-19T13:25:12;34.10;62.10
18339;DHT22;9295;44.484;11.240;2022-07-19T13:28:01;34.10;62.10
18339;DHT22;9295;44.484;11.240;2022-07-19T13:30:30;33.90;61.10
18339;DHT22;9295;44.484;11.240;2022-07-19T13:33:00;33.70;61.00
18339;DHT22;9295;44.484;11.240;2022-07-19T13:35:32;33.80;61.20
18339;DHT22;9295;44.484;11.240;2022-07-19T13:38:02;33.90;61.40
18339;DHT22;9295;44.484;11.240;2022-07-19T13:40:30;33.90;61.30
18339;DHT22;9295;44.484;11.240;2022-07-19T13:42:59;34.00;60.40
18339;DHT22;9295;44.484;11.240;2022-07-19T13:45:28;34.00;60.80
18339;DHT22;9295;44.484;11.240;2022-07-19T13:47:56;34.10;60.30
18339;DHT22;9295;44.484;11.240;2022-07-19T13:50:29;34.00;60.00
18339;DHT22;9295;44.484;11.240;2022-07-19T13:52:59;33.90;60.00
18339;DHT22;9295;44.484;11.240;2022-07-19T13:55:29;33.90;60.00
18339;DHT22;9295;44.484;11.240;2022-07-19T13:57:59;34.00;59.30
18339;DHT22;9295;44.484;11.240;2022-07-19T14:00:28;34.10;59.30
18339;DHT22;9295;44.484;11.240;2022-07-19T14:02:56;34.20;58.70
18339;DHT22;9295;44.484;11.240;2022-07-19T14:05:27;34.20;57.60
18339;DHT22;9295;44.484;11.240;2022-07-19T14:07:56;34.20;58.30
18339;DHT22;9295;44.484;11.240;2022-07-19T14:10:25;34.40;57.20
18339;DHT22;9295;44.484;11.240;2022-07-19T14:12:53;34.50;56.70
18339;DHT22;9295;44.484;11.240;2022-07-19T14:15:42;34.50;56.60
18339;DHT22;9295;44.484;11.240;2022-07-19T14:18:12;34.50;55.80
18339;DHT22;9295;44.484;11.240;2022-07-19T14:20:43;34.60;56.10
18339;DHT22;9295;44.484;11.240;2022-07-19T14:23:14;34.60;55.80
18339;DHT22;9295;44.484;11.240;2022-07-19T14:25:43;34.60;55.80
18339;DHT22;9295;44.484;11.240;2022-07-19T14:28:25;34.50;55.20
18339;DHT22;9295;44.484;11.240;2022-07-19T14:30:54;34.40;55.00
18339;DHT22;9295;44.484;11.240;2022-07-19T14:33:24;34.30;55.30
18339;DHT22;9295;44.484;11.240;2022-07-19T14:35:55;34.30;55.70
18339;DHT22;9295;44.484;11.240;2022-07-19T14:38:23;34.30;55.40
18339;DHT22;9295;44.484;11.240;2022-07-19T14:40:52;34.30;55.60
18339;DHT22;9295;44.484;11.240;2022-07-19T14:43:20;34.40;55.00
18339;DHT22;9295;44.484;11.240;2022-07-19T14:45:49;34.40;55.80
18339;DHT22;9295;44.484;11.240;2022-07-19T14:48:19;34.30;55.00
18339;DHT22;9295;44.484;11.240;2022-07-19T14:50:47;34.30;55.00
18339;DHT22;9295;44.484;11.240;2022-07-19T14:53:20;34.20;55.00
18339;DHT22;9295;44.484;11.240;2022-07-19T14:55:49;34.30;55.00
18339;DHT22;9295;44.484;11.240;2022-07-19T14:58:18;34.30;55.10
18339;DHT22;9295;44.484;11.240;2022-07-19T15:00:46;34.30;55.40
18339;DHT22;9295;44.484;11.240;2022-07-19T15:03:15;34.30;55.50
18339;DHT22;9295;44.484;11.240;2022-07-19T15:05:46;34.40;55.70
18339;DHT22;9295;44.484;11.240;2022-07-19T15:08:15;34.40;55.60
18339;DHT22;9295;44.484;11.240;2022-07-19T15:10:46;34.40;55.40
18339;DHT22;9295;44.484;11.240;2022-07-19T15:13:14;34.40;55.40
18339;DHT22;9295;44.484;11.240;2022-07-19T15:15:43;34.40;55.30
18339;DHT22;9295;44.484;11.240;2022-07-19T15:18:12;34.30;55.60
18339;DHT22;9295;44.484;11.240;2022-07-19T15:20:40;34.30;55.80
18339;DHT22;9295;44.484;11.240;2022-07-19T15:23:09;34.30;56.10
18339;DHT22;9295;44.484;11.240;2022-07-19T15:25:38;34.30;56.10
18339;DHT22;9295;44.484;11.240;2022-07-19T15:28:09;34.30;56.10
18339;DHT22;9295;44.484;11.240;2022-07-19T15:30:38;34.30;55.80
18339;DHT22;9295;44.484;11.240;2022-07-19T15:33:06;34.20;56.20
18339;DHT22;9295;44.484;11.240;2022-07-19T15:35:35;34.20;56.20
18339;DHT22;9295;44.484;11.240;2022-07-19T15:38:04;34.30;55.90
18339;DHT22;9295;44.484;11.240;2022-07-19T15:40:32;34.30;56.00
18339;DHT22;9295;44.484;11.240;2022-07-19T15:43:01;34.40;55.70
18339;DHT22;9295;44.484;11.240;2022-07-19T15:45:31;34.20;55.50
18339;DHT22;9295;44.484;11.240;2022-07-19T15:48:00;34.30;55.80
18339;DHT22;9295;44.484;11.240;2022-07-19T15:50:30;34.30;55.00
18339;DHT22;9295;44.484;11.240;2022-07-19T15:53:02;34.10;55.20
18339;DHT22;9295;44.484;11.240;2022-07-19T15:55:33;34.10;55.70